Time;durP1;ratioP1;P1;durP2;ratioP2;P2;SDS_P1;SDS_P2;PMS_P1;PMS_P2;Temp;Humidity;BMP_temperature;BMP_pressure;BME280_temperature;BME280_humidity;BME280_pressure;Samples;Min_cycle;Max_cycle;Signal;HPM_P1;HPM_P2
2023/03/10 00:00:04;;;;;;;;;5.00;3.33;;;;;;;;5045790;28;45543;-52
2023/03/10 00:02:31;;;;;;;;;5.33;4.33;;;;;;;;5074348;27;45495;-53
2023/03/10 00:04:57;;;;;;;;;8.67;4.00;;;;;;;;5074116;27;45470;-53
2023/03/10 00:07:23;;;;;;;;;3.00;2.00;;;;;;;;5074450;28;45444;-48
2023/03/10 00:09:48;;;;;;;;;6.67;4.00;;;;;;;;5056402;28;45833;-53
2023/03/10 00:12:14;;;;;;;;;5.33;3.67;;;;;;;;5074106;27;46174;-53
2023/03/10 00:14:40;;;;;;;;;4.33;3.33;;;;;;;;5041780;28;45420;-53
2023/03/10 00:17:05;;;;;;;;;5.00;3.00;;;;;;;;5074261;27;45525;-50
2023/03/10 00:19:31;;;;;;;;;6.33;4.00;;;;;;;;5061704;28;45461;-52
2023/03/10 00:21:56;;;;;;;;;4.00;4.00;;;;;;;;5053947;28;46559;-52
2023/03/10 00:24:22;;;;;;;;;5.00;2.33;;;;;;;;5055668;28;46190;-53
2023/03/10 00:26:50;;;;;;;;;10.00;4.33;;;;;;;;5055784;28;45440;-52
2023/03/10 00:29:16;;;;;;;;;2.33;2.33;;;;;;;;5041512;27;45475;-53
2023/03/10 00:31:41;;;;;;;;;4.33;3.33;;;;;;;;5073825;27;46254;-51
2023/03/10 00:34:08;;;;;;;;;5.00;4.00;;;;;;;;5066455;28;45505;-49
2023/03/10 00:36:34;;;;;;;;;2.33;2.33;;;;;;;;5067111;27;45593;-53
2023/03/10 00:39:00;;;;;;;;;6.33;4.00;;;;;;;;5055671;27;45976;-52
2023/03/10 00:41:27;;;;;;;;;8.33;4.33;;;;;;;;5073752;27;46232;-54
2023/03/10 00:43:53;;;;;;;;;4.00;3.00;;;;;;;;5073721;27;45564;-54
2023/03/10 00:46:18;;;;;;;;;4.00;3.00;;;;;;;;5073687;27;45502;-49
2023/03/10 00:48:44;;;;;;;;;2.33;2.33;;;;;;;;5074130;27;45479;-52
2023/03/10 00:51:10;;;;;;;;;7.00;3.00;;;;;;;;5062222;27;46058;-52
2023/03/10 00:53:36;;;;;;;;;3.00;2.00;;;;;;;;5066739;27;45542;-50
2023/03/10 00:56:03;;;;;;;;;4.00;2.00;;;;;;;;5059466;27;45561;-53
2023/03/10 00:58:29;;;;;;;;;3.67;2.00;;;;;;;;5072912;27;45421;-55
2023/03/10 01:00:54;;;;;;;;;2.00;2.00;;;;;;;;5073378;27;45954;-54
2023/03/10 01:03:20;;;;;;;;;1.00;1.00;;;;;;;;5073039;27;45489;-53
2023/03/10 01:05:46;;;;;;;;;3.00;1.00;;;;;;;;5074009;27;45554;-53
2023/03/10 01:08:11;;;;;;;;;0.67;0.00;;;;;;;;5073667;27;45352;-53
2023/03/10 01:10:37;;;;;;;;;3.00;3.00;;;;;;;;5062520;27;45658;-50
2023/03/10 01:13:02;;;;;;;;;2.67;1.33;;;;;;;;5068009;27;45532;-55
2023/03/10 01:15:27;;;;;;;;;0.67;0.67;;;;;;;;5073742;28;45670;-52
2023/03/10 01:17:53;;;;;;;;;1.00;1.00;;;;;;;;5073523;27;45521;-52
2023/03/10 01:20:18;;;;;;;;;1.67;1.00;;;;;;;;5054870;28;47098;-52
2023/03/10 01:22:45;;;;;;;;;1.00;1.00;;;;;;;;5038121;28;46324;-52
2023/03/10 01:25:13;;;;;;;;;2.67;0.67;;;;;;;;5068818;27;45461;-55
2023/03/10 01:27:39;;;;;;;;;0.00;0.00;;;;;;;;5056813;27;46121;-54
2023/03/10 01:30:05;;;;;;;;;3.00;2.00;;;;;;;;5064493;28;46214;-54
2023/03/10 01:32:31;;;;;;;;;2.67;2.00;;;;;;;;5073095;27;45455;-53
2023/03/10 01:34:56;;;;;;;;;2.00;1.00;;;;;;;;5055125;28;45486;-51
2023/03/10 01:37:23;;;;;;;;;1.00;0.67;;;;;;;;5073083;27;45461;-55
2023/03/10 01:39:50;;;;;;;;;0.33;0.33;;;;;;;;5069424;27;45495;-51
2023/03/10 01:42:15;;;;;;;;;2.00;2.00;;;;;;;;5047103;28;45681;-52
2023/03/10 01:44:41;;;;;;;;;1.00;1.00;;;;;;;;5073031;27;45442;-54
2023/03/10 01:47:06;;;;;;;;;1.00;1.00;;;;;;;;5045920;28;45558;-53
2023/03/10 01:49:43;;;;;;;;;3.67;1.00;;;;;;;;5072723;27;45501;-53
2023/03/10 01:52:14;;;;;;;;;4.00;1.33;;;;;;;;5061579;28;45510;-54
2023/03/10 01:54:47;;;;;;;;;1.00;1.00;;;;;;;;5062071;28;45517;-53
2023/03/10 01:57:13;;;;;;;;;2.00;2.00;;;;;;;;5073248;27;45629;-55
2023/03/10 01:59:40;;;;;;;;;1.67;1.67;;;;;;;;5072616;27;46109;-53
2023/03/10 02:02:07;;;;;;;;;2.00;0.67;;;;;;;;5072460;27;45541;-51
2023/03/10 02:04:34;;;;;;;;;1.33;1.33;;;;;;;;5072727;27;45470;-55
2023/03/10 02:07:01;;;;;;;;;3.33;1.00;;;;;;;;5051441;28;45521;-53
2023/03/10 02:09:27;;;;;;;;;2.00;2.00;;;;;;;;5068570;27;46092;-52
2023/03/10 02:11:52;;;;;;;;;1.00;1.00;;;;;;;;5058299;28;45538;-55
2023/03/10 02:14:18;;;;;;;;;2.33;2.33;;;;;;;;5076457;27;45434;-54
2023/03/10 02:16:43;;;;;;;;;5.00;4.00;;;;;;;;5062064;27;45436;-55
2023/03/10 02:19:15;;;;;;;;;2.67;2.00;;;;;;;;5075680;27;47321;-54
2023/03/10 02:21:48;;;;;;;;;2.67;2.00;;;;;;;;5076223;27;45439;-53
2023/03/10 02:24:19;;;;;;;;;4.33;2.00;;;;;;;;5076307;27;45558;-54
2023/03/10 02:27:02;;;;;;;;;4.00;2.00;;;;;;;;5075911;27;45496;-53
2023/03/10 02:29:37;;;;;;;;;3.33;2.67;;;;;;;;5048464;27;45547;-55
2023/03/10 02:32:03;;;;;;;;;3.00;2.00;;;;;;;;5069108;27;45451;-52
2023/03/10 02:34:28;;;;;;;;;5.00;4.00;;;;;;;;5057637;27;45521;-54
2023/03/10 02:36:55;;;;;;;;;3.33;2.00;;;;;;;;5057734;28;45364;-54
2023/03/10 02:39:20;;;;;;;;;4.00;4.00;;;;;;;;5075626;28;45514;-52
2023/03/10 02:41:45;;;;;;;;;3.67;2.33;;;;;;;;5075649;27;45566;-51
2023/03/10 02:44:12;;;;;;;;;2.00;1.33;;;;;;;;5075875;27;45510;-53
2023/03/10 02:46:37;;;;;;;;;2.67;1.00;;;;;;;;5060797;28;45616;-52
2023/03/10 02:49:04;;;;;;;;;2.00;2.00;;;;;;;;5075688;27;45946;-53
2023/03/10 02:51:31;;;;;;;;;2.00;1.00;;;;;;;;5075804;27;45485;-55
2023/03/10 02:53:57;;;;;;;;;1.67;0.67;;;;;;;;5075752;27;45451;-50
2023/03/10 02:56:22;;;;;;;;;3.33;1.00;;;;;;;;5075459;27;45496;-53
2023/03/10 02:58:47;;;;;;;;;3.67;2.00;;;;;;;;5075362;27;45419;-52
2023/03/10 03:01:12;;;;;;;;;1.00;1.00;;;;;;;;5062493;28;45461;-53
2023/03/10 03:03:37;;;;;;;;;3.00;1.00;;;;;;;;5075693;27;45544;-52
2023/03/10 03:06:03;;;;;;;;;1.00;1.00;;;;;;;;5063218;27;45555;-54
2023/03/10 03:08:28;;;;;;;;;1.00;0.00;;;;;;;;5074445;27;45441;-54
2023/03/10 03:10:54;;;;;;;;;1.00;1.00;;;;;;;;5074704;27;45505;-53
2023/03/10 03:13:19;;;;;;;;;2.33;1.33;;;;;;;;5056934;28;45507;-55
2023/03/10 03:15:44;;;;;;;;;1.33;0.33;;;;;;;;5048224;28;45558;-52
2023/03/10 03:18:09;;;;;;;;;0.00;0.00;;;;;;;;5075192;27;45434;-53
2023/03/10 03:20:36;;;;;;;;;0.67;0.67;;;;;;;;5061620;28;45645;-49
2023/03/10 03:23:02;;;;;;;;;4.00;1.00;;;;;;;;5060353;27;45718;-52
2023/03/10 03:25:29;;;;;;;;;1.33;0.67;;;;;;;;5059966;28;45573;-50
2023/03/10 03:27:54;;;;;;;;;1.00;1.00;;;;;;;;5063575;27;46200;-50
2023/03/10 03:30:22;;;;;;;;;1.33;1.00;;;;;;;;5071116;27;45653;-54
2023/03/10 03:32:47;;;;;;;;;2.00;0.00;;;;;;;;5066733;28;45433;-53
2023/03/10 03:35:14;;;;;;;;;2.00;2.00;;;;;;;;5069309;27;45477;-55
2023/03/10 03:37:40;;;;;;;;;2.67;1.00;;;;;;;;5074688;27;46660;-53
2023/03/10 03:40:11;;;;;;;;;3.67;2.67;;;;;;;;5074985;27;45551;-53
2023/03/10 03:42:37;;;;;;;;;3.00;2.00;;;;;;;;5062734;27;45578;-51
2023/03/10 03:45:03;;;;;;;;;4.00;1.00;;;;;;;;5066038;28;45478;-50
2023/03/10 03:47:28;;;;;;;;;3.67;3.00;;;;;;;;5074377;27;45983;-53
2023/03/10 03:49:53;;;;;;;;;3.33;2.33;;;;;;;;5047504;28;45644;-54
2023/03/10 03:52:19;;;;;;;;;4.00;1.33;;;;;;;;5061741;27;45578;-51
2023/03/10 03:54:44;;;;;;;;;3.50;3.00;;;;;;;;5074649;28;45469;-55
2023/03/10 03:57:09;;;;;;;;;1.33;1.33;;;;;;;;5066551;28;46149;-53
2023/03/10 03:59:34;;;;;;;;;1.67;1.67;;;;;;;;5074456;28;45490;-52
2023/03/10 04:01:59;;;;;;;;;2.00;2.00;;;;;;;;5074774;27;46028;-54
2023/03/10 04:04:24;;;;;;;;;7.00;3.00;;;;;;;;5074449;28;45563;-53
2023/03/10 04:06:50;;;;;;;;;4.33;3.33;;;;;;;;5074423;27;46311;-53
2023/03/10 04:09:16;;;;;;;;;3.00;3.00;;;;;;;;5074594;27;45398;-52
2023/03/10 04:11:42;;;;;;;;;3.33;2.00;;;;;;;;5043211;27;46052;-52
2023/03/10 04:14:07;;;;;;;;;3.00;3.00;;;;;;;;5074437;27;45560;-55
2023/03/10 04:16:32;;;;;;;;;3.00;3.00;;;;;;;;5074153;27;45637;-47
2023/03/10 04:18:57;;;;;;;;;2.00;2.00;;;;;;;;5074296;27;45529;-54
2023/03/10 04:21:22;;;;;;;;;8.00;4.33;;;;;;;;5074124;27;45720;-54
2023/03/10 04:23:48;;;;;;;;;3.33;3.00;;;;;;;;5066533;28;45576;-51
2023/03/10 04:26:13;;;;;;;;;3.00;3.00;;;;;;;;5054465;27;47305;-53
2023/03/10 04:28:38;;;;;;;;;2.67;2.00;;;;;;;;5072350;27;45428;-47
2023/03/10 04:31:03;;;;;;;;;2.00;2.00;;;;;;;;5073917;27;45518;-53
2023/03/10 04:33:29;;;;;;;;;4.33;3.00;;;;;;;;5072859;27;45637;-54
2023/03/10 04:35:54;;;;;;;;;1.67;1.67;;;;;;;;5065814;27;45838;-53
2023/03/10 04:38:22;;;;;;;;;1.33;1.33;;;;;;;;5059793;28;45496;-51
2023/03/10 04:40:52;;;;;;;;;2.00;2.00;;;;;;;;5074221;27;45466;-54
2023/03/10 04:43:17;;;;;;;;;2.00;1.00;;;;;;;;5073981;27;45507;-51
2023/03/10 04:45:42;;;;;;;;;2.00;2.00;;;;;;;;5064313;27;45514;-52
2023/03/10 04:48:07;;;;;;;;;4.00;1.00;;;;;;;;5073852;27;45469;-54
2023/03/10 04:50:33;;;;;;;;;4.00;2.67;;;;;;;;5070665;27;45460;-52
2023/03/10 04:52:58;;;;;;;;;0.00;0.00;;;;;;;;5044779;27;45571;-51
2023/03/10 04:55:23;;;;;;;;;2.33;0.67;;;;;;;;5062568;28;46738;-52
2023/03/10 04:57:48;;;;;;;;;1.00;1.00;;;;;;;;5073768;27;45469;-50
2023/03/10 05:00:13;;;;;;;;;2.00;0.67;;;;;;;;5074034;27;45485;-50
2023/03/10 05:02:39;;;;;;;;;2.00;2.00;;;;;;;;5069198;27;45537;-51
2023/03/10 05:05:04;;;;;;;;;1.00;1.00;;;;;;;;5064111;27;46347;-49
2023/03/10 05:07:30;;;;;;;;;3.33;1.00;;;;;;;;5073198;27;46128;-51
2023/03/10 05:09:55;;;;;;;;;0.00;0.00;;;;;;;;5073856;27;45427;-52
2023/03/10 05:12:20;;;;;;;;;0.67;0.33;;;;;;;;5060540;28;45624;-54
2023/03/10 05:14:45;;;;;;;;;3.00;0.67;;;;;;;;5059774;28;45569;-53
2023/03/10 05:17:10;;;;;;;;;2.00;1.00;;;;;;;;5073445;27;45450;-55
2023/03/10 05:19:36;;;;;;;;;2.00;0.00;;;;;;;;5073415;27;45487;-52
2023/03/10 05:22:02;;;;;;;;;0.00;0.00;;;;;;;;5073611;28;45602;-53
2023/03/10 05:24:27;;;;;;;;;0.00;0.00;;;;;;;;5055944;28;45531;-51
2023/03/10 05:26:53;;;;;;;;;1.00;0.00;;;;;;;;5070689;27;45560;-53
2023/03/10 05:29:19;;;;;;;;;1.00;1.00;;;;;;;;5073150;27;45568;-55
2023/03/10 05:31:45;;;;;;;;;0.00;0.00;;;;;;;;5073155;27;45512;-51
2023/03/10 05:34:10;;;;;;;;;2.33;0.00;;;;;;;;5067658;27;45509;-52
2023/03/10 05:36:35;;;;;;;;;0.00;0.00;;;;;;;;5073076;27;45527;-54
2023/03/10 05:39:00;;;;;;;;;1.67;0.33;;;;;;;;5073228;27;45445;-55
2023/03/10 05:41:26;;;;;;;;;0.00;0.00;;;;;;;;5068775;27;45589;-51
2023/03/10 05:43:51;;;;;;;;;0.00;0.00;;;;;;;;5067051;27;45489;-54
2023/03/10 05:46:16;;;;;;;;;2.00;1.33;;;;;;;;5079815;27;45480;-54
2023/03/10 05:48:41;;;;;;;;;0.33;0.33;;;;;;;;5079849;27;45694;-54
2023/03/10 05:51:08;;;;;;;;;0.33;0.00;;;;;;;;5079987;27;45445;-51
2023/03/10 05:53:34;;;;;;;;;1.67;0.00;;;;;;;;5072406;27;45533;-51
2023/03/10 05:55:59;;;;;;;;;0.00;0.00;;;;;;;;5079476;27;45513;-53
2023/03/10 05:58:25;;;;;;;;;0.00;0.00;;;;;;;;5079884;27;45543;-56
2023/03/10 06:00:51;;;;;;;;;0.00;0.00;;;;;;;;5079497;27;45481;-54
2023/03/10 06:03:17;;;;;;;;;0.00;0.00;;;;;;;;5071104;27;45542;-52
2023/03/10 06:05:42;;;;;;;;;0.00;0.00;;;;;;;;5049671;28;45461;-53
2023/03/10 06:08:07;;;;;;;;;0.00;0.00;;;;;;;;5052050;27;45493;-54
2023/03/10 06:10:32;;;;;;;;;0.00;0.00;;;;;;;;5068500;27;45641;-52
2023/03/10 06:12:58;;;;;;;;;0.00;0.00;;;;;;;;5072794;27;45937;-51
2023/03/10 06:15:23;;;;;;;;;0.00;0.00;;;;;;;;5080073;27;45482;-54
2023/03/10 06:17:48;;;;;;;;;0.00;0.00;;;;;;;;5066530;27;45548;-54
2023/03/10 06:20:14;;;;;;;;;0.00;0.00;;;;;;;;5080223;27;45462;-58
2023/03/10 06:22:39;;;;;;;;;0.33;0.00;;;;;;;;5079471;27;46069;-55
2023/03/10 06:25:05;;;;;;;;;0.00;0.00;;;;;;;;5065324;27;45535;-50
2023/03/10 06:27:30;;;;;;;;;1.00;0.00;;;;;;;;5069254;27;45567;-54
2023/03/10 06:29:56;;;;;;;;;1.00;0.00;;;;;;;;5078031;27;45470;-54
2023/03/10 06:32:21;;;;;;;;;0.00;0.00;;;;;;;;5066632;27;45574;-50
2023/03/10 06:34:46;;;;;;;;;1.00;0.00;;;;;;;;5047638;27;45497;-52
2023/03/10 06:37:11;;;;;;;;;1.00;1.00;;;;;;;;5065017;27;45448;-54
2023/03/10 06:39:38;;;;;;;;;0.67;0.00;;;;;;;;5060339;28;45546;-51
2023/03/10 06:42:03;;;;;;;;;0.00;0.00;;;;;;;;5049337;28;45464;-51
2023/03/10 06:44:28;;;;;;;;;0.00;0.00;;;;;;;;5065758;27;45628;-50
2023/03/10 06:46:54;;;;;;;;;1.00;0.00;;;;;;;;5076928;27;45715;-48
2023/03/10 06:49:19;;;;;;;;;0.00;0.00;;;;;;;;5079144;27;45663;-54
2023/03/10 06:51:44;;;;;;;;;1.00;0.00;;;;;;;;5078754;27;45407;-53
2023/03/10 06:54:09;;;;;;;;;0.00;0.00;;;;;;;;5051827;27;45499;-53
2023/03/10 06:56:34;;;;;;;;;0.00;0.00;;;;;;;;5074819;27;45481;-55
2023/03/10 06:59:00;;;;;;;;;0.00;0.00;;;;;;;;5073172;27;45481;-52
2023/03/10 07:01:27;;;;;;;;;1.00;0.00;;;;;;;;5054378;27;46490;-55
2023/03/10 07:03:52;;;;;;;;;0.00;0.00;;;;;;;;5075218;27;45504;-55
2023/03/10 07:06:18;;;;;;;;;0.00;0.00;;;;;;;;5075539;27;45571;-54
2023/03/10 07:08:43;;;;;;;;;0.00;0.00;;;;;;;;5051153;28;45605;-54
2023/03/10 07:11:08;;;;;;;;;0.00;0.00;;;;;;;;5072215;27;45454;-54
2023/03/10 07:13:34;;;;;;;;;0.67;0.00;;;;;;;;5075246;27;45506;-56
2023/03/10 07:15:59;;;;;;;;;0.00;0.00;;;;;;;;5053937;28;45831;-54
2023/03/10 07:18:26;;;;;;;;;0.00;0.00;;;;;;;;5055961;27;45483;-56
2023/03/10 07:20:53;;;;;;;;;0.00;0.00;;;;;;;;5059360;27;45653;-56
2023/03/10 07:23:18;;;;;;;;;0.00;0.00;;;;;;;;5063167;27;45517;-52
2023/03/10 07:25:43;;;;;;;;;0.00;0.00;;;;;;;;5063440;27;45400;-51
2023/03/10 07:28:08;;;;;;;;;0.00;0.00;;;;;;;;5074691;27;45584;-51
2023/03/10 07:30:34;;;;;;;;;0.00;0.00;;;;;;;;5074562;27;46458;-50
2023/03/10 07:32:59;;;;;;;;;1.00;0.00;;;;;;;;5054671;27;45518;-50
2023/03/10 07:35:24;;;;;;;;;0.00;0.00;;;;;;;;5063764;27;45384;-51
2023/03/10 07:37:49;;;;;;;;;0.00;0.00;;;;;;;;5049147;28;45662;-50
2023/03/10 07:40:15;;;;;;;;;0.00;0.00;;;;;;;;5063144;28;46195;-54
2023/03/10 07:42:43;;;;;;;;;1.00;0.00;;;;;;;;5065534;27;45468;-54
2023/03/10 07:45:08;;;;;;;;;0.00;0.00;;;;;;;;5054304;28;45606;-51
2023/03/10 07:47:34;;;;;;;;;1.00;0.00;;;;;;;;5055286;28;45583;-50
2023/03/10 07:49:59;;;;;;;;;0.00;0.00;;;;;;;;5074237;27;45363;-52
2023/03/10 07:52:24;;;;;;;;;0.00;0.00;;;;;;;;5074794;27;45549;-50
2023/03/10 07:54:49;;;;;;;;;0.33;0.33;;;;;;;;5074866;27;45444;-51
2023/03/10 07:57:15;;;;;;;;;0.33;0.00;;;;;;;;5074652;27;45620;-51
2023/03/10 07:59:41;;;;;;;;;0.00;0.00;;;;;;;;5074348;27;45914;-51
2023/03/10 08:02:06;;;;;;;;;1.00;0.00;;;;;;;;5074397;27;45431;-50
2023/03/10 08:04:31;;;;;;;;;1.00;0.00;;;;;;;;5074777;27;45489;-52
2023/03/10 08:06:58;;;;;;;;;0.00;0.00;;;;;;;;5074122;27;45609;-50
2023/03/10 08:09:23;;;;;;;;;0.00;0.00;;;;;;;;5074041;27;46257;-51
2023/03/10 08:11:48;;;;;;;;;0.00;0.00;;;;;;;;5074361;27;45482;-49
2023/03/10 08:14:14;;;;;;;;;0.00;0.00;;;;;;;;5074359;27;45545;-52
2023/03/10 08:16:40;;;;;;;;;0.00;0.00;;;;;;;;5074196;27;45529;-50
2023/03/10 08:19:06;;;;;;;;;1.33;0.00;;;;;;;;5073991;27;46446;-53
2023/03/10 08:21:31;;;;;;;;;1.00;1.00;;;;;;;;5074342;27;45542;-51
2023/03/10 08:23:56;;;;;;;;;0.00;0.00;;;;;;;;5066172;27;45578;-50
2023/03/10 08:26:21;;;;;;;;;0.00;0.00;;;;;;;;5068209;27;46071;-53
2023/03/10 08:28:47;;;;;;;;;1.33;0.67;;;;;;;;5073913;27;46216;-51
2023/03/10 08:31:14;;;;;;;;;0.67;0.00;;;;;;;;5073952;27;45424;-52
2023/03/10 08:33:39;;;;;;;;;0.00;0.00;;;;;;;;5074064;27;45520;-48
2023/03/10 08:36:05;;;;;;;;;2.00;0.00;;;;;;;;5073964;27;45462;-49
2023/03/10 08:38:30;;;;;;;;;0.00;0.00;;;;;;;;5073636;27;45450;-50
2023/03/10 08:40:55;;;;;;;;;0.00;0.00;;;;;;;;5073775;27;45629;-51
2023/03/10 08:43:20;;;;;;;;;2.00;1.00;;;;;;;;5074064;27;45490;-51
2023/03/10 08:45:46;;;;;;;;;0.00;0.00;;;;;;;;5073755;27;45486;-49
2023/03/10 08:48:11;;;;;;;;;2.00;0.00;;;;;;;;5073762;28;45604;-50
2023/03/10 08:50:36;;;;;;;;;0.00;0.00;;;;;;;;5073568;27;45575;-50
2023/03/10 08:53:02;;;;;;;;;0.00;0.00;;;;;;;;5073895;27;45480;-50
2023/03/10 08:55:28;;;;;;;;;1.00;1.00;;;;;;;;5073655;28;45691;-48
2023/03/10 08:57:53;;;;;;;;;0.00;0.00;;;;;;;;5073423;27;46060;-49
2023/03/10 09:00:18;;;;;;;;;2.00;0.00;;;;;;;;5073426;27;45443;-49
2023/03/10 09:02:43;;;;;;;;;0.00;0.00;;;;;;;;5073542;27;45498;-53
2023/03/10 09:05:09;;;;;;;;;0.00;0.00;;;;;;;;5073461;27;45604;-53
2023/03/10 09:07:34;;;;;;;;;1.00;0.00;;;;;;;;5073097;27;45684;-49
2023/03/10 09:10:00;;;;;;;;;1.00;1.00;;;;;;;;5073272;27;45500;-49
2023/03/10 09:12:25;;;;;;;;;1.00;0.00;;;;;;;;5044899;27;45560;-50
2023/03/10 09:14:50;;;;;;;;;0.00;0.00;;;;;;;;5073524;28;45514;-52
2023/03/10 09:17:15;;;;;;;;;0.00;0.00;;;;;;;;5073236;27;45882;-52
2023/03/10 09:19:40;;;;;;;;;1.00;0.00;;;;;;;;5072341;27;45447;-49
2023/03/10 09:22:06;;;;;;;;;0.33;0.00;;;;;;;;5073267;27;45552;-53
2023/03/10 09:24:31;;;;;;;;;0.00;0.00;;;;;;;;5042314;28;45407;-53
2023/03/10 09:26:56;;;;;;;;;0.00;0.00;;;;;;;;5053349;28;47541;-50
2023/03/10 09:29:21;;;;;;;;;0.00;0.00;;;;;;;;5073035;27;45447;-51
2023/03/10 09:31:47;;;;;;;;;0.00;0.00;;;;;;;;5072961;27;45596;-52
2023/03/10 09:34:12;;;;;;;;;0.00;0.00;;;;;;;;5073015;27;45462;-52
2023/03/10 09:36:37;;;;;;;;;0.00;0.00;;;;;;;;5072625;27;45551;-53
2023/03/10 09:39:03;;;;;;;;;1.33;0.00;;;;;;;;5072914;27;45618;-53
2023/03/10 09:41:47;;;;;;;;;1.67;0.67;;;;;;;;5072449;27;45597;-53
2023/03/10 09:44:15;;;;;;;;;1.00;0.00;;;;;;;;5046490;27;45478;-52
2023/03/10 09:46:43;;;;;;;;;2.00;0.00;;;;;;;;5072750;27;45684;-51
2023/03/10 09:49:22;;;;;;;;;1.00;1.00;;;;;;;;5067284;27;45471;-52
2023/03/10 09:51:47;;;;;;;;;0.67;0.67;;;;;;;;5065908;27;45559;-51
2023/03/10 09:54:32;;;;;;;;;0.67;0.67;;;;;;;;5072666;27;45590;-51
2023/03/10 09:56:58;;;;;;;;;1.00;1.00;;;;;;;;5072437;28;45979;-51
2023/03/10 09:59:29;;;;;;;;;2.00;2.00;;;;;;;;5072086;27;45596;-53
2023/03/10 10:01:54;;;;;;;;;1.00;1.00;;;;;;;;5072727;27;45516;-53
2023/03/10 10:04:26;;;;;;;;;0.33;0.00;;;;;;;;5072478;28;45645;-53
2023/03/10 10:06:51;;;;;;;;;1.00;1.00;;;;;;;;5072118;27;45537;-53
2023/03/10 10:09:28;;;;;;;;;1.00;1.00;;;;;;;;5072340;27;45544;-50
2023/03/10 10:11:54;;;;;;;;;0.00;0.00;;;;;;;;5072512;27;45493;-53
2023/03/10 10:14:24;;;;;;;;;0.00;0.00;;;;;;;;5072075;27;45546;-55
2023/03/10 10:16:49;;;;;;;;;2.00;2.00;;;;;;;;5072293;27;45443;-51
2023/03/10 10:19:22;;;;;;;;;1.00;1.00;;;;;;;;5072145;27;45633;-52
2023/03/10 10:21:47;;;;;;;;;0.00;0.00;;;;;;;;5072606;28;45450;-54
2023/03/10 10:24:13;;;;;;;;;1.33;0.33;;;;;;;;5043842;28;45610;-54
2023/03/10 10:26:38;;;;;;;;;3.00;1.00;;;;;;;;5067963;28;46068;-53
2023/03/10 10:29:12;;;;;;;;;2.00;1.00;;;;;;;;5072172;27;45401;-52
2023/03/10 10:31:38;;;;;;;;;1.67;1.00;;;;;;;;5074735;28;45560;-51
2023/03/10 10:34:04;;;;;;;;;1.00;1.00;;;;;;;;5075578;27;45566;-53
2023/03/10 10:36:31;;;;;;;;;1.00;1.00;;;;;;;;5075653;27;45735;-52
2023/03/10 10:38:59;;;;;;;;;3.00;1.00;;;;;;;;5075548;27;45450;-52
2023/03/10 10:41:25;;;;;;;;;2.00;1.00;;;;;;;;5075628;27;45448;-51
2023/03/10 10:43:51;;;;;;;;;0.33;0.00;;;;;;;;5075473;28;45436;-54
2023/03/10 10:46:24;;;;;;;;;1.00;1.00;;;;;;;;5075226;27;45469;-54
2023/03/10 10:48:58;;;;;;;;;2.33;1.00;;;;;;;;5075421;27;45442;-49
2023/03/10 10:51:28;;;;;;;;;0.67;0.67;;;;;;;;5075647;27;45446;-52
2023/03/10 10:53:57;;;;;;;;;1.67;1.67;;;;;;;;5075516;28;45454;-51
2023/03/10 10:56:23;;;;;;;;;0.33;0.33;;;;;;;;5075427;28;46170;-55
2023/03/10 10:59:03;;;;;;;;;2.00;1.00;;;;;;;;5074733;27;45524;-53
2023/03/10 11:01:48;;;;;;;;;0.00;0.00;;;;;;;;5075293;27;45468;-51
2023/03/10 11:04:14;;;;;;;;;2.00;2.00;;;;;;;;5074864;27;45453;-52
2023/03/10 11:06:39;;;;;;;;;2.00;2.00;;;;;;;;5060249;27;46100;-52
2023/03/10 11:09:07;;;;;;;;;1.67;1.67;;;;;;;;5056442;27;46286;-52
2023/03/10 11:11:48;;;;;;;;;4.67;2.33;;;;;;;;5075434;27;45542;-53
2023/03/10 11:14:16;;;;;;;;;8.00;5.00;;;;;;;;5074925;27;45513;-50
2023/03/10 11:16:51;;;;;;;;;3.00;3.00;;;;;;;;5074766;27;46274;-51
2023/03/10 11:19:35;;;;;;;;;7.67;7.67;;;;;;;;5074489;27;45465;-51
2023/03/10 11:22:21;;;;;;;;;9.00;8.00;;;;;;;;5074891;27;45544;-51
2023/03/10 11:24:54;;;;;;;;;2.00;2.00;;;;;;;;5059828;28;45648;-54
2023/03/10 11:27:28;;;;;;;;;2.33;1.00;;;;;;;;5056202;28;45460;-52
2023/03/10 11:30:12;;;;;;;;;2.67;2.67;;;;;;;;5074319;27;45584;-54
2023/03/10 11:32:57;;;;;;;;;2.00;2.00;;;;;;;;5056441;28;45744;-52
2023/03/10 11:35:22;;;;;;;;;0.67;0.67;;;;;;;;5074450;27;45571;-48
2023/03/10 11:37:57;;;;;;;;;8.67;3.00;;;;;;;;5074255;27;45515;-51
2023/03/10 11:40:31;;;;;;;;;1.00;1.00;;;;;;;;5074503;27;45513;-52
2023/03/10 11:43:15;;;;;;;;;1.00;1.00;;;;;;;;5055824;28;45563;-52
2023/03/10 11:45:41;;;;;;;;;1.67;0.33;;;;;;;;5074483;27;45558;-54
2023/03/10 11:48:24;;;;;;;;;0.67;0.33;;;;;;;;5074345;27;46233;-53
2023/03/10 11:50:51;;;;;;;;;1.33;1.33;;;;;;;;5068726;27;45611;-54
2023/03/10 11:53:29;;;;;;;;;1.67;1.00;;;;;;;;5052859;28;45645;-52
2023/03/10 11:55:55;;;;;;;;;2.00;1.00;;;;;;;;5044380;27;45489;-51
2023/03/10 11:58:23;;;;;;;;;1.33;1.33;;;;;;;;5046755;28;45496;-52
2023/03/10 12:00:51;;;;;;;;;1.00;1.00;;;;;;;;5061013;27;45489;-53
2023/03/10 12:03:19;;;;;;;;;3.33;3.33;;;;;;;;5052404;28;45564;-54
2023/03/10 12:05:53;;;;;;;;;0.00;0.00;;;;;;;;5052405;28;45576;-51
2023/03/10 12:08:19;;;;;;;;;4.33;2.33;;;;;;;;5074098;27;46119;-53
2023/03/10 12:10:45;;;;;;;;;3.00;1.67;;;;;;;;5074225;27;45587;-52
2023/03/10 12:13:17;;;;;;;;;3.33;2.33;;;;;;;;5046067;28;45487;-49
2023/03/10 12:15:43;;;;;;;;;3.00;3.00;;;;;;;;5074051;27;45489;-52
2023/03/10 12:18:08;;;;;;;;;3.00;2.00;;;;;;;;5052245;27;46611;-53
2023/03/10 12:20:34;;;;;;;;;1.00;1.00;;;;;;;;5066622;27;45505;-54
2023/03/10 12:23:09;;;;;;;;;1.00;1.00;;;;;;;;5070549;27;45455;-52
2023/03/10 12:25:37;;;;;;;;;2.00;2.00;;;;;;;;5043351;28;45429;-51
2023/03/10 12:28:14;;;;;;;;;1.00;1.00;;;;;;;;5074207;27;46208;-51
2023/03/10 12:30:42;;;;;;;;;1.67;0.33;;;;;;;;5048153;28;45517;-53
2023/03/10 12:33:28;;;;;;;;;1.00;1.00;;;;;;;;5074461;27;45415;-52
2023/03/10 12:35:54;;;;;;;;;2.67;1.00;;;;;;;;5060046;27;45519;-51
2023/03/10 12:38:33;;;;;;;;;2.00;1.00;;;;;;;;5074535;27;45505;-49
2023/03/10 12:41:00;;;;;;;;;1.00;0.67;;;;;;;;5070821;27;45427;-51
2023/03/10 12:43:37;;;;;;;;;0.00;0.00;;;;;;;;5054870;28;45623;-50
2023/03/10 12:46:05;;;;;;;;;0.33;0.33;;;;;;;;5056556;28;45407;-48
2023/03/10 12:48:33;;;;;;;;;2.00;1.00;;;;;;;;5067446;27;46219;-49
2023/03/10 12:51:01;;;;;;;;;1.67;1.67;;;;;;;;5073719;27;45594;-50
2023/03/10 12:53:48;;;;;;;;;4.00;1.67;;;;;;;;5072693;27;45598;-51
2023/03/10 12:56:15;;;;;;;;;1.00;0.00;;;;;;;;5049093;28;45530;-53
2023/03/10 12:58:44;;;;;;;;;1.00;1.00;;;;;;;;5073467;27;45577;-53
2023/03/10 13:01:12;;;;;;;;;0.00;0.00;;;;;;;;5073532;27;45439;-49
2023/03/10 13:03:43;;;;;;;;;1.00;1.00;;;;;;;;5073764;27;45617;-54
2023/03/10 13:06:19;;;;;;;;;0.00;0.00;;;;;;;;5073646;28;45497;-52
2023/03/10 13:08:52;;;;;;;;;0.33;0.33;;;;;;;;5073392;27;46095;-53
2023/03/10 13:11:17;;;;;;;;;0.67;0.67;;;;;;;;5073256;27;45593;-51
2023/03/10 13:13:42;;;;;;;;;0.00;0.00;;;;;;;;5073797;27;45532;-49
2023/03/10 13:16:15;;;;;;;;;0.00;0.00;;;;;;;;5073312;27;45570;-49
2023/03/10 13:18:45;;;;;;;;;0.00;0.00;;;;;;;;5073268;27;46097;-50
2023/03/10 13:21:22;;;;;;;;;1.00;1.00;;;;;;;;5073207;28;45587;-52
2023/03/10 13:23:48;;;;;;;;;1.00;1.00;;;;;;;;5066238;28;45506;-51
2023/03/10 13:26:17;;;;;;;;;1.33;0.00;;;;;;;;5065962;27;45415;-52
2023/03/10 13:28:53;;;;;;;;;1.33;1.00;;;;;;;;5072927;28;46333;-49
2023/03/10 13:31:20;;;;;;;;;1.00;0.00;;;;;;;;5072720;27;45470;-52
2023/03/10 13:33:47;;;;;;;;;1.00;1.00;;;;;;;;5073002;27;45579;-51
2023/03/10 13:36:27;;;;;;;;;0.00;0.00;;;;;;;;5073272;28;45441;-51
2023/03/10 13:38:55;;;;;;;;;0.33;0.33;;;;;;;;5072741;27;45569;-51
2023/03/10 13:41:20;;;;;;;;;0.67;0.67;;;;;;;;5055280;28;45600;-49
2023/03/10 13:43:47;;;;;;;;;1.00;1.00;;;;;;;;5072963;27;45468;-51
2023/03/10 13:46:17;;;;;;;;;1.67;0.00;;;;;;;;5073211;27;45519;-51
2023/03/10 13:48:43;;;;;;;;;0.00;0.00;;;;;;;;5073048;27;45574;-51
2023/03/10 13:51:21;;;;;;;;;0.67;0.67;;;;;;;;5073022;28;45496;-49
2023/03/10 13:53:51;;;;;;;;;0.00;0.00;;;;;;;;5073119;27;45470;-53
2023/03/10 13:56:26;;;;;;;;;0.00;0.00;;;;;;;;5073081;28;45518;-52
2023/03/10 13:58:53;;;;;;;;;0.00;0.00;;;;;;;;5054723;27;45488;-54
2023/03/10 14:01:21;;;;;;;;;0.00;0.00;;;;;;;;5072890;27;46134;-51
2023/03/10 14:03:55;;;;;;;;;1.00;1.00;;;;;;;;5072875;27;45465;-53
2023/03/10 14:06:22;;;;;;;;;2.00;1.00;;;;;;;;5050198;27;45523;-52
2023/03/10 14:08:48;;;;;;;;;1.67;1.67;;;;;;;;5075993;27;45457;-50
2023/03/10 14:11:30;;;;;;;;;0.00;0.00;;;;;;;;5075976;27;45510;-50
2023/03/10 14:13:57;;;;;;;;;1.00;1.00;;;;;;;;5076482;27;45497;-53
2023/03/10 14:16:42;;;;;;;;;2.00;1.00;;;;;;;;5075940;27;45603;-51
2023/03/10 14:19:08;;;;;;;;;1.00;1.00;;;;;;;;5075104;27;47203;-50
2023/03/10 14:21:35;;;;;;;;;0.00;0.00;;;;;;;;5075693;27;45799;-53
2023/03/10 14:24:01;;;;;;;;;1.00;1.00;;;;;;;;5067640;27;45592;-53
2023/03/10 14:26:26;;;;;;;;;1.67;1.00;;;;;;;;5070222;27;45430;-53
2023/03/10 14:28:52;;;;;;;;;0.00;0.00;;;;;;;;5057739;28;47095;-50
2023/03/10 14:31:19;;;;;;;;;1.00;1.00;;;;;;;;5075670;27;45658;-53
2023/03/10 14:33:44;;;;;;;;;1.00;1.00;;;;;;;;5075846;27;45490;-54
2023/03/10 14:36:10;;;;;;;;;1.00;1.00;;;;;;;;5057880;28;45438;-51
2023/03/10 14:38:36;;;;;;;;;3.00;1.67;;;;;;;;5057504;28;46209;-52
2023/03/10 14:41:02;;;;;;;;;0.67;0.67;;;;;;;;5075882;27;45520;-54
2023/03/10 14:43:27;;;;;;;;;1.67;1.00;;;;;;;;5075998;27;45437;-55